Nathaniel B. Palmer — WBP3210 — position and weather

sailwx.info

Track history (hours):
 
Tides and Currents Weather Stations Pressure Air Temp Water Temp Dewpoint Dewpoint Depression Visibility Wind Speed Wind Dir Waves Ship Positions

Oceanographic research ship Nathaniel B. Palmer (USA)

Contact: Ethan Norris, ethan.norris.contractor@usap.gov

Detailed information on ship capabilities available from University of Delaware's Ocean Information Center and ARCUS's ALIAS (Arctic Logistics Information and Support) project.

Owner: OFFSHORE SERVICE VESSELS, GALLIANO, LA. More information available from US FCC via Universal Licensing System and Coast Guard Vessel Documentation Center.

Last reported at 2016-May-05 08:00 UTC. Time now 2016-May-05 10:22 UTC.
Position S 53°06' W 070°54'.

Type: Other ship. MMSI: 366610000.

Wind from 340 at 6 knots

Barometer 1022.2 mb
Air temperature 5.5 ° C
Water temperature 2.0 ° C

Date/timePositionNaut miles runAvg speedWind from/ knotsBaromVisibWave heightAir tempDewpointWater temp
2016-May-05 08:00S 53°06' W 070°54'0 0.0 340 / 61022.2 5.5 2.0
2016-May-05 07:00S 53°06' W 070°54'0 0.0 340 / 71022.4 5.3 2.0
2016-May-05 06:00S 53°06' W 070°54'0 0.0 340 / 41022.7 4.3 2.0
2016-May-05 05:00S 53°06' W 070°54'0 0.0 1022.6 5.1 2.0
2016-May-05 04:00S 53°06' W 070°54'0 0.0 330 / 31022.5 5.2 2.0
2016-May-04 21:00S 53°06' W 070°54'0 0.0 180 / 51021.5 8.5 2.0
2016-May-04 19:00S 53°06' W 070°54'0 0.0 170 / 111020.9 9.2 2.0
2016-May-04 17:00S 53°06' W 070°54'0 0.0 200 / 171020.8 9.0 2.0
2016-May-04 16:00S 53°06' W 070°54'0 0.0 190 / 111020.7 8.9 2.0
2016-May-04 13:00S 53°06' W 070°54'0 0.0 260 / 131019.1 7.2 2.0
2016-May-04 11:00S 53°06' W 070°54'0 0.0 230 / 151018.0 6.9 2.0
2016-May-04 10:00S 53°06' W 070°54'0 0.0 230 / 91017.6 7.2 2.0
2016-May-04 05:00S 53°06' W 070°54'0 0.0 280 / 91015.6 6.7 2.0
2016-May-04 04:00S 53°06' W 070°54'0 0.0 270 / 101015.4 6.8 2.0
2016-May-04 02:00S 53°06' W 070°54'0 0.0 220 / 61015.0 7.0 2.0
2016-May-04 01:00S 53°06' W 070°54'0 0.0 230 / 121014.9 7.3 2.0
2016-May-04 00:00S 53°06' W 070°54'0 0.0 230 / 151014.6 7.6 2.0
2016-May-03 23:00S 53°06' W 070°54'0 0.0 250 / 181013.9 7.9 2.0
2016-May-03 20:00S 53°06' W 070°54'0 0.0 290 / 131014.2 8.1 2.0
2016-May-03 17:00S 53°06' W 070°54'0 0.0 280 / 211014.1 7.6 2.0
2016-May-03 14:00S 53°06' W 070°54'0 0.0 020 / 41014.3 6.3 2.0
2016-May-03 13:00S 53°06' W 070°54'0 0.0 240 / 91014.6 6.0 2.0
2016-May-03 10:00S 53°06' W 070°54'0 0.0 260 / 91015.1 5.8 2.0
2016-May-03 08:00S 53°06' W 070°54'0 0.0 260 / 81016.0 5.8 2.0
2016-May-03 07:00S 53°06' W 070°54'0 0.0 270 / 41016.3 5.2 2.0
2016-May-03 05:00S 53°06' W 070°54'0 0.0 220 / 31017.0 5.3 2.0
2016-May-03 04:00S 53°06' W 070°54'0 0.0 220 / 41017.5 4.7 2.0
2016-May-03 03:00S 53°06' W 070°54'0 0.0 260 / 31017.8 4.7 2.0
2016-May-03 02:00S 53°06' W 070°54'0 0.0 350 / 41018.3 6.5 2.0
2016-May-03 01:00S 53°06' W 070°54'0 0.0 360 / 61018.7 7.4 2.0
2016-May-02 23:00S 53°06' W 070°54'0 0.0 010 / 21019.5 6.7 2.0
2016-May-02 22:00S 53°06' W 070°54'0 0.0 050 / 41019.7 7.2 2.0
2016-May-02 21:00S 53°06' W 070°54'0 0.0 060 / 51019.8 8.0 2.0
2016-May-02 19:00S 53°06' W 070°54'0 0.0 200 / 51020.6 10.1 2.0
2016-May-02 17:00S 53°06' W 070°54'0 0.0 250 / 81021.7 9.2 2.0
2016-May-02 14:00S 53°06' W 070°54'0 0.0 270 / 111022.1 7.5 2.0
2016-May-02 11:00S 53°06' W 070°54'0 0.0 250 / 101021.3 6.8 2.0
2016-May-02 07:00S 53°06' W 070°54'0 0.0 270 / 111020.3 6.1 2.0
2016-May-02 06:00S 53°06' W 070°54'0 0.0 260 / 61019.8 6.3 2.0
2016-May-02 05:00S 53°06' W 070°54'0 0.0 220 / 81019.2 7.1 2.0
2016-May-02 04:00S 53°06' W 070°54'0 0.0 220 / 61019.0 6.7 2.0
2016-May-02 01:00S 53°06' W 070°54'0 0.0 260 / 81017.8 6.4 2.0
2016-May-01 23:00S 53°06' W 070°54'0 0.0 260 / 81016.9 6.5 2.0
2016-May-01 20:00S 53°06' W 070°54'0 0.0 230 / 241014.9 7.1 2.0
2016-May-01 18:00S 53°06' W 070°54'0 0.0 230 / 191014.5 7.2 2.0
2016-May-01 17:00S 53°06' W 070°54'0 0.0 240 / 151014.4 7.0 2.0
2016-May-01 14:00S 53°06' W 070°54'0 0.0 260 / 161013.6 5.7 2.0
2016-May-01 08:00S 53°06' W 070°54'0 0.0 260 / 141012.6 4.5 2.0
2016-May-01 07:00S 53°06' W 070°54'0 0.0 260 / 111012.9 4.3 2.0
2016-May-01 05:00S 53°06' W 070°54'0 0.0 300 / 71013.2 3.4 2.0
2016-May-01 03:00S 53°06' W 070°54'0 0.0 310 / 61012.7 3.7 2.0
2016-May-01 02:00S 53°06' W 070°54'0 0.0 260 / 91012.2 4.5 2.0
2016-May-01 00:00S 53°06' W 070°54'0 0.0 230 / 131011.4 5.1 2.0
2016-Apr-30 22:00S 53°06' W 070°54'0 0.0 270 / 111009.6 5.9 2.0
2016-Apr-30 21:00S 53°06' W 070°54'0 0.0 270 / 151009.0 6.8 2.0
2016-Apr-30 20:00S 53°06' W 070°54'0 0.0 260 / 181008.8 8.1 2.0
2016-Apr-30 19:00S 53°06' W 070°54'0 0.0 260 / 141009.4 8.0 2.0
2016-Apr-30 17:00S 53°06' W 070°54'0 0.0 250 / 111010.1 7.6 2.0
2016-Apr-30 16:00S 53°06' W 070°54'0 0.0 260 / 111010.0 7.7 2.0
2016-Apr-30 15:00S 53°06' W 070°54'4 0.9 260 / 121010.0 7.8 2.0
2016-Apr-30 11:00S 53°06' W 070°48'23 7.7 330 / 41010.2 3.4 2.0
2016-Apr-30 08:00S 52°48' W 070°24'4113.5 280 / 151011.7 6.3 2.0
2016-Apr-30 05:00S 52°24' W 069°30'1312.5 270 / 61014.3 4.2 2.0
2016-Apr-30 04:00S 52°18' W 069°12'16 7.9 310 / 61015.4 5.5 2.0
2016-Apr-30 02:00S 52°24' W 068°48'7 7.3 280 / 101016.8 6.7 2.0
2016-Apr-30 01:00S 52°24' W 068°36'4 3.7 260 / 131017.1 7.0 2.0
2016-Apr-30 00:00S 52°24' W 068°30'7 7.0 260 / 151017.4 7.6 2.0
2016-Apr-29 23:00S 52°30' W 068°24'4 3.7 270 / 181017.8 7.7 2.0
2016-Apr-29 22:00S 52°30' W 068°18'4 3.7 280 / 171018.1 7.3 2.0
2016-Apr-29 21:00S 52°30' W 068°12'7 3.5 280 / 181018.4 7.3 2.0
2016-Apr-29 19:00S 52°36' W 068°06'7 7.0 280 / 151019.5 7.4 2.0
2016-Apr-29 18:00S 52°42' W 068°00'4 3.6 290 / 121020.1 6.6 2.0
2016-Apr-29 17:00S 52°42' W 067°54'7 7.0 300 / 111020.9 6.5 2.0
2016-Apr-29 16:00S 52°48' W 067°48'0 0.0 270 / 121021.4 6.0 2.0
2016-Apr-29 15:00S 52°48' W 067°48'9 4.7 240 / 141021.5 5.1 2.0
2016-Apr-29 13:00S 52°54' W 067°36'7 7.0 250 / 111022.2 5.1 2.0
2016-Apr-29 12:00S 53°00' W 067°30'7 7.0 260 / 101022.4 5.4 2.0
2016-Apr-29 11:00S 53°06' W 067°24'22 7.2 250 / 101022.4 5.9 2.0
2016-Apr-29 08:00S 53°18' W 066°54'3210.7 280 / 31022.6 6.7 2.0
2016-Apr-29 05:00S 53°42' W 066°18'3411.5 090 / 51022.8 6.5 2.0
2016-Apr-29 02:00S 54°06' W 065°36'4912.1 190 / 131022.7 5.9 2.0
2016-Apr-28 22:00S 54°48' W 064°54'18 9.0 230 / 291021.2 6.0 2.0
2016-Apr-28 20:00S 55°06' W 064°54'1212.0 240 / 211020.7 5.2 2.0
2016-Apr-28 19:00S 55°18' W 064°54'2412.0 240 / 221020.8 4.9 2.0
2016-Apr-28 17:00S 55°42' W 064°54'1212.0 240 / 211021.0 4.1 2.0
2016-Apr-28 16:00S 55°54' W 064°54'1212.0 240 / 211021.1 3.9 2.0
2016-Apr-28 15:00S 56°06' W 064°54'1212.0 240 / 201021.1 3.7 2.0
2016-Apr-28 14:00S 56°18' W 064°54'1212.0 240 / 191021.3 3.7 2.0
2016-Apr-28 13:00S 56°30' W 064°54'2412.0 240 / 201021.3 3.5 2.0
2016-Apr-28 11:00S 56°54' W 064°54'18 9.0 230 / 161021.8 2.3 2.0
2016-Apr-28 09:00S 57°12' W 064°54'1212.0 220 / 171021.4 1.9 2.0
2016-Apr-28 08:00S 57°24' W 064°54'1212.0 220 / 221021.2 1.6 2.0
2016-Apr-28 07:00S 57°36' W 064°54'3010.0 220 / 251020.8 1.5 2.0
2016-Apr-28 04:00S 58°06' W 064°54'5410.8 180 / 111019.1 0.5 2.0
2016-Apr-27 23:00S 59°00' W 064°54'2412.0 180 / 111014.4 0.6 1.7
2016-Apr-27 21:00S 59°24' W 064°54'3612.0 180 / 111012.0 0.4 0.6
2016-Apr-27 18:00S 60°00' W 064°54'18 9.0 180 / 111008.2 -0.0 0.3
2016-Apr-27 16:00S 60°18' W 064°54'1212.0 180 / 101005.7 -0.6 0.2
2016-Apr-27 15:00S 60°30' W 064°54'3612.0 180 / 101004.5 -0.6 0.2
2016-Apr-27 12:00S 61°06' W 064°54'6 6.0 180 / 101001.8 -1.1 0.2
2016-Apr-27 11:00S 61°12' W 064°54'1212.0 180 / 101001.0 -1.2 0.1
2016-Apr-27 10:00S 61°24' W 064°54'18 9.0 180 / 101000.1 -1.3 0.1
2016-Apr-27 08:00S 61°42' W 064°54'2412.0 180 / 10998.7 -1.1 -0.0
2016-Apr-27 06:00S 62°06' W 064°54'6 6.0 180 / 9997.4 -0.9 -0.7
2016-Apr-27 05:00S 62°12' W 064°54'3010.0 180 / 9996.9 -0.8 -0.8
2016-Apr-27 02:00S 62°42' W 064°54'1212.0 180 / 10995.5 -0.7 -0.5
2016-Apr-27 01:00S 62°54' W 064°54'18 9.0 180 / 10995.3 -0.7 -0.4
2016-Apr-26 23:00S 63°12' W 064°54'2412.0 180 / 10994.5 -0.8 -0.8
2016-Apr-26 21:00S 63°36' W 064°54'7 6.6 180 / 10993.6 -0.7 -0.8
2016-Apr-26 20:00S 63°42' W 065°00'4210.5 180 / 10993.2 -0.4 -0.7
2016-Apr-26 16:00S 64°24' W 064°54'24 3.4 180 / 10996.4 -0.7 -1.0
2016-Apr-26 09:00S 64°42' W 065°30'0 0.0 220 1007.4 -1.4 -0.7
2016-Apr-26 07:00S 64°42' W 065°30'0 0.0 250 1010.0 -0.8 -0.7
2016-Apr-26 06:00S 64°42' W 065°30'3 2.6 140 / 11011.0 -0.6 -0.7
2016-Apr-26 05:00S 64°42' W 065°24'0 0.0 140 / 11011.6 -0.6 -0.8
2016-Apr-26 03:00S 64°42' W 065°24'3 2.6 190 / 31012.7 -0.5 -0.8
2016-Apr-26 02:00S 64°42' W 065°18'0 0.0 280 / 71013.0 -0.8 -0.7
2016-Apr-25 22:00S 64°42' W 065°18'0 0.0 040 / 91014.7 -1.4 -0.7
2016-Apr-25 21:00S 64°42' W 065°18'0 0.0 050 / 91014.8 -1.4 -0.7
2016-Apr-25 20:00S 64°42' W 065°18'26 8.8 050 / 91015.1 -1.4 -0.8
2016-Apr-25 17:00S 64°48' W 064°18'5 5.1 010 / 41015.7 -2.3 -0.7
2016-Apr-25 16:00S 64°48' W 064°06'14 4.7 010 / 31015.8 -2.3 -0.7
2016-Apr-25 13:00S 64°54' W 063°36'10 3.4 110 / 51016.5 -2.8 -0.7
2016-Apr-25 10:00S 64°54' W 063°12'12 6.1 110 / 31016.4 -2.5 -1.0
2016-Apr-25 08:00S 64°42' W 063°06'   240 / 41016.4 -2.6 -0.9
Track history (hours):
 
Tides and Currents Weather Stations Pressure Air Temp Water Temp Dewpoint Dewpoint Depression Visibility Wind Speed Wind Dir Waves Ship Positions

Oceanographic research ship Nathaniel B. Palmer (USA)

Contact: Ethan Norris, ethan.norris.contractor@usap.gov

Detailed information on ship capabilities available from University of Delaware's Ocean Information Center and ARCUS's ALIAS (Arctic Logistics Information and Support) project.

Owner: OFFSHORE SERVICE VESSELS, GALLIANO, LA. More information available from US FCC via Universal Licensing System and Coast Guard Vessel Documentation Center.

Last reported at 2016-May-05 08:00 UTC. Time now 2016-May-05 10:22 UTC.
Position S 53°06' W 070°54'.

Type: Other ship. MMSI: 366610000.

Wind from 340 at 6 knots

Barometer 1022.2 mb
Air temperature 5.5 ° C
Water temperature 2.0 ° C

Date/timePositionNaut miles runAvg speedWind from/ knotsBaromVisibWave heightAir tempDewpointWater temp
2016-May-05 08:00S 53°06' W 070°54'0 0.0 340 / 61022.2 5.5 2.0
2016-May-05 07:00S 53°06' W 070°54'0 0.0 340 / 71022.4 5.3 2.0
2016-May-05 06:00S 53°06' W 070°54'0 0.0 340 / 41022.7 4.3 2.0
2016-May-05 05:00S 53°06' W 070°54'0 0.0 1022.6 5.1 2.0
2016-May-05 04:00S 53°06' W 070°54'0 0.0 330 / 31022.5 5.2 2.0
2016-May-04 21:00S 53°06' W 070°54'0 0.0 180 / 51021.5 8.5 2.0
2016-May-04 19:00S 53°06' W 070°54'0 0.0 170 / 111020.9 9.2 2.0
2016-May-04 17:00S 53°06' W 070°54'0 0.0 200 / 171020.8 9.0 2.0
2016-May-04 16:00S 53°06' W 070°54'0 0.0 190 / 111020.7 8.9 2.0
2016-May-04 13:00S 53°06' W 070°54'0 0.0 260 / 131019.1 7.2 2.0
2016-May-04 11:00S 53°06' W 070°54'0 0.0 230 / 151018.0 6.9 2.0
2016-May-04 10:00S 53°06' W 070°54'0 0.0 230 / 91017.6 7.2 2.0
2016-May-04 05:00S 53°06' W 070°54'0 0.0 280 / 91015.6 6.7 2.0
2016-May-04 04:00S 53°06' W 070°54'0 0.0 270 / 101015.4 6.8 2.0
2016-May-04 02:00S 53°06' W 070°54'0 0.0 220 / 61015.0 7.0 2.0
2016-May-04 01:00S 53°06' W 070°54'0 0.0 230 / 121014.9 7.3 2.0
2016-May-04 00:00S 53°06' W 070°54'0 0.0 230 / 151014.6 7.6 2.0
2016-May-03 23:00S 53°06' W 070°54'0 0.0 250 / 181013.9 7.9 2.0
2016-May-03 20:00S 53°06' W 070°54'0 0.0 290 / 131014.2 8.1 2.0
2016-May-03 17:00S 53°06' W 070°54'0 0.0 280 / 211014.1 7.6 2.0
2016-May-03 14:00S 53°06' W 070°54'0 0.0 020 / 41014.3 6.3 2.0
2016-May-03 13:00S 53°06' W 070°54'0 0.0 240 / 91014.6 6.0 2.0
2016-May-03 10:00S 53°06' W 070°54'0 0.0 260 / 91015.1 5.8 2.0
2016-May-03 08:00S 53°06' W 070°54'0 0.0 260 / 81016.0 5.8 2.0
2016-May-03 07:00S 53°06' W 070°54'0 0.0 270 / 41016.3 5.2 2.0
2016-May-03 05:00S 53°06' W 070°54'0 0.0 220 / 31017.0 5.3 2.0
2016-May-03 04:00S 53°06' W 070°54'0 0.0 220 / 41017.5 4.7 2.0
2016-May-03 03:00S 53°06' W 070°54'0 0.0 260 / 31017.8 4.7 2.0
2016-May-03 02:00S 53°06' W 070°54'0 0.0 350 / 41018.3 6.5 2.0
2016-May-03 01:00S 53°06' W 070°54'0 0.0 360 / 61018.7 7.4 2.0
2016-May-02 23:00S 53°06' W 070°54'0 0.0 010 / 21019.5 6.7 2.0
2016-May-02 22:00S 53°06' W 070°54'0 0.0 050 / 41019.7 7.2 2.0
2016-May-02 21:00S 53°06' W 070°54'0 0.0 060 / 51019.8 8.0 2.0
2016-May-02 19:00S 53°06' W 070°54'0 0.0 200 / 51020.6 10.1 2.0
2016-May-02 17:00S 53°06' W 070°54'0 0.0 250 / 81021.7 9.2 2.0
2016-May-02 14:00S 53°06' W 070°54'0 0.0 270 / 111022.1 7.5 2.0
2016-May-02 11:00S 53°06' W 070°54'0 0.0 250 / 101021.3 6.8 2.0
2016-May-02 07:00S 53°06' W 070°54'0 0.0 270 / 111020.3 6.1 2.0
2016-May-02 06:00S 53°06' W 070°54'0 0.0 260 / 61019.8 6.3 2.0
2016-May-02 05:00S 53°06' W 070°54'0 0.0 220 / 81019.2 7.1 2.0
2016-May-02 04:00S 53°06' W 070°54'0 0.0 220 / 61019.0 6.7 2.0
2016-May-02 01:00S 53°06' W 070°54'0 0.0 260 / 81017.8 6.4 2.0
2016-May-01 23:00S 53°06' W 070°54'0 0.0 260 / 81016.9 6.5 2.0
2016-May-01 20:00S 53°06' W 070°54'0 0.0 230 / 241014.9 7.1 2.0
2016-May-01 18:00S 53°06' W 070°54'0 0.0 230 / 191014.5 7.2 2.0
2016-May-01 17:00S 53°06' W 070°54'0 0.0 240 / 151014.4 7.0 2.0
2016-May-01 14:00S 53°06' W 070°54'0 0.0 260 / 161013.6 5.7 2.0
2016-May-01 08:00S 53°06' W 070°54'0 0.0 260 / 141012.6 4.5 2.0
2016-May-01 07:00S 53°06' W 070°54'0 0.0 260 / 111012.9 4.3 2.0
2016-May-01 05:00S 53°06' W 070°54'0 0.0 300 / 71013.2 3.4 2.0
2016-May-01 03:00S 53°06' W 070°54'0 0.0 310 / 61012.7 3.7 2.0
2016-May-01 02:00S 53°06' W 070°54'0 0.0 260 / 91012.2 4.5 2.0
2016-May-01 00:00S 53°06' W 070°54'0 0.0 230 / 131011.4 5.1 2.0
2016-Apr-30 22:00S 53°06' W 070°54'0 0.0 270 / 111009.6 5.9 2.0
2016-Apr-30 21:00S 53°06' W 070°54'0 0.0 270 / 151009.0 6.8 2.0
2016-Apr-30 20:00S 53°06' W 070°54'0 0.0 260 / 181008.8 8.1 2.0
2016-Apr-30 19:00S 53°06' W 070°54'0 0.0 260 / 141009.4 8.0 2.0
2016-Apr-30 17:00S 53°06' W 070°54'0 0.0 250 / 111010.1 7.6 2.0
2016-Apr-30 16:00S 53°06' W 070°54'0 0.0 260 / 111010.0 7.7 2.0
2016-Apr-30 15:00S 53°06' W 070°54'4 0.9 260 / 121010.0 7.8 2.0
2016-Apr-30 11:00S 53°06' W 070°48'23 7.7 330 / 41010.2 3.4 2.0
2016-Apr-30 08:00S 52°48' W 070°24'4113.5 280 / 151011.7 6.3 2.0
2016-Apr-30 05:00S 52°24' W 069°30'1312.5 270 / 61014.3 4.2 2.0
2016-Apr-30 04:00S 52°18' W 069°12'16 7.9 310 / 61015.4 5.5 2.0
2016-Apr-30 02:00S 52°24' W 068°48'7 7.3 280 / 101016.8 6.7 2.0
2016-Apr-30 01:00S 52°24' W 068°36'4 3.7 260 / 131017.1 7.0 2.0
2016-Apr-30 00:00S 52°24' W 068°30'7 7.0 260 / 151017.4 7.6 2.0
2016-Apr-29 23:00S 52°30' W 068°24'4 3.7 270 / 181017.8 7.7 2.0
2016-Apr-29 22:00S 52°30' W 068°18'4 3.7 280 / 171018.1 7.3 2.0
2016-Apr-29 21:00S 52°30' W 068°12'7 3.5 280 / 181018.4 7.3 2.0
2016-Apr-29 19:00S 52°36' W 068°06'7 7.0 280 / 151019.5 7.4 2.0
2016-Apr-29 18:00S 52°42' W 068°00'4 3.6 290 / 121020.1 6.6 2.0
2016-Apr-29 17:00S 52°42' W 067°54'7 7.0 300 / 111020.9 6.5 2.0
2016-Apr-29 16:00S 52°48' W 067°48'0 0.0 270 / 121021.4 6.0 2.0
2016-Apr-29 15:00S 52°48' W 067°48'9 4.7 240 / 141021.5 5.1 2.0
2016-Apr-29 13:00S 52°54' W 067°36'7 7.0 250 / 111022.2 5.1 2.0
2016-Apr-29 12:00S 53°00' W 067°30'7 7.0 260 / 101022.4 5.4 2.0
2016-Apr-29 11:00S 53°06' W 067°24'22 7.2 250 / 101022.4 5.9 2.0
2016-Apr-29 08:00S 53°18' W 066°54'3210.7 280 / 31022.6 6.7 2.0
2016-Apr-29 05:00S 53°42' W 066°18'3411.5 090 / 51022.8 6.5 2.0
2016-Apr-29 02:00S 54°06' W 065°36'4912.1 190 / 131022.7 5.9 2.0
2016-Apr-28 22:00S 54°48' W 064°54'18 9.0 230 / 291021.2 6.0 2.0
2016-Apr-28 20:00S 55°06' W 064°54'1212.0 240 / 211020.7 5.2 2.0
2016-Apr-28 19:00S 55°18' W 064°54'2412.0 240 / 221020.8 4.9 2.0
2016-Apr-28 17:00S 55°42' W 064°54'1212.0 240 / 211021.0 4.1 2.0
2016-Apr-28 16:00S 55°54' W 064°54'1212.0 240 / 211021.1 3.9 2.0
2016-Apr-28 15:00S 56°06' W 064°54'1212.0 240 / 201021.1 3.7 2.0
2016-Apr-28 14:00S 56°18' W 064°54'1212.0 240 / 191021.3 3.7 2.0
2016-Apr-28 13:00S 56°30' W 064°54'2412.0 240 / 201021.3 3.5 2.0
2016-Apr-28 11:00S 56°54' W 064°54'18 9.0 230 / 161021.8 2.3 2.0
2016-Apr-28 09:00S 57°12' W 064°54'1212.0 220 / 171021.4 1.9 2.0
2016-Apr-28 08:00S 57°24' W 064°54'1212.0 220 / 221021.2 1.6 2.0
2016-Apr-28 07:00S 57°36' W 064°54'3010.0 220 / 251020.8 1.5 2.0
2016-Apr-28 04:00S 58°06' W 064°54'5410.8 180 / 111019.1 0.5 2.0
2016-Apr-27 23:00S 59°00' W 064°54'2412.0 180 / 111014.4 0.6 1.7
2016-Apr-27 21:00S 59°24' W 064°54'3612.0 180 / 111012.0 0.4 0.6
2016-Apr-27 18:00S 60°00' W 064°54'18 9.0 180 / 111008.2 -0.0 0.3
2016-Apr-27 16:00S 60°18' W 064°54'1212.0 180 / 101005.7 -0.6 0.2
2016-Apr-27 15:00S 60°30' W 064°54'3612.0 180 / 101004.5 -0.6 0.2
2016-Apr-27 12:00S 61°06' W 064°54'6 6.0 180 / 101001.8 -1.1 0.2
2016-Apr-27 11:00S 61°12' W 064°54'1212.0 180 / 101001.0 -1.2 0.1
2016-Apr-27 10:00S 61°24' W 064°54'18 9.0 180 / 101000.1 -1.3 0.1
2016-Apr-27 08:00S 61°42' W 064°54'2412.0 180 / 10998.7 -1.1 -0.0
2016-Apr-27 06:00S 62°06' W 064°54'6 6.0 180 / 9997.4 -0.9 -0.7
2016-Apr-27 05:00S 62°12' W 064°54'3010.0 180 / 9996.9 -0.8 -0.8
2016-Apr-27 02:00S 62°42' W 064°54'1212.0 180 / 10995.5 -0.7 -0.5
2016-Apr-27 01:00S 62°54' W 064°54'18 9.0 180 / 10995.3 -0.7 -0.4
2016-Apr-26 23:00S 63°12' W 064°54'2412.0 180 / 10994.5 -0.8 -0.8
2016-Apr-26 21:00S 63°36' W 064°54'7 6.6 180 / 10993.6 -0.7 -0.8
2016-Apr-26 20:00S 63°42' W 065°00'4210.5 180 / 10993.2 -0.4 -0.7
2016-Apr-26 16:00S 64°24' W 064°54'24 3.4 180 / 10996.4 -0.7 -1.0
2016-Apr-26 09:00S 64°42' W 065°30'0 0.0 220 1007.4 -1.4 -0.7
2016-Apr-26 07:00S 64°42' W 065°30'0 0.0 250 1010.0 -0.8 -0.7
2016-Apr-26 06:00S 64°42' W 065°30'3 2.6 140 / 11011.0 -0.6 -0.7
2016-Apr-26 05:00S 64°42' W 065°24'0 0.0 140 / 11011.6 -0.6 -0.8
2016-Apr-26 03:00S 64°42' W 065°24'3 2.6 190 / 31012.7 -0.5 -0.8
2016-Apr-26 02:00S 64°42' W 065°18'0 0.0 280 / 71013.0 -0.8 -0.7
2016-Apr-25 22:00S 64°42' W 065°18'0 0.0 040 / 91014.7 -1.4 -0.7
2016-Apr-25 21:00S 64°42' W 065°18'0 0.0 050 / 91014.8 -1.4 -0.7
2016-Apr-25 20:00S 64°42' W 065°18'26 8.8 050 / 91015.1 -1.4 -0.8
2016-Apr-25 17:00S 64°48' W 064°18'5 5.1 010 / 41015.7 -2.3 -0.7
2016-Apr-25 16:00S 64°48' W 064°06'14 4.7 010 / 31015.8 -2.3 -0.7
2016-Apr-25 13:00S 64°54' W 063°36'10 3.4 110 / 51016.5 -2.8 -0.7
2016-Apr-25 10:00S 64°54' W 063°12'12 6.1 110 / 31016.4 -2.5 -1.0
2016-Apr-25 08:00S 64°42' W 063°06'   240 / 41016.4 -2.6 -0.9

Dump ship's entire track history